sensor_id;sensor_type;location;lat;lon;timestamp;P1;durP1;ratioP1;P2;durP2;ratioP2
65358;SDS011;52491;45.900;6.346;2022-12-29T18:51:06;9.38;;;5.50;;
65358;SDS011;52491;45.900;6.346;2022-12-29T18:53:38;18.60;;;4.90;;
65358;SDS011;52491;45.900;6.346;2022-12-29T18:56:04;8.23;;;5.80;;
65358;SDS011;52491;45.900;6.346;2022-12-29T18:58:31;7.25;;;5.20;;
65358;SDS011;52491;45.900;6.346;2022-12-29T19:00:57;11.88;;;4.88;;
65358;SDS011;52491;45.900;6.346;2022-12-29T19:03:23;9.27;;;4.40;;
65358;SDS011;52491;45.900;6.346;2022-12-29T19:05:48;6.75;;;4.53;;
65358;SDS011;52491;45.900;6.346;2022-12-29T19:08:14;5.65;;;4.15;;
65358;SDS011;52491;45.900;6.346;2022-12-29T19:10:40;8.15;;;4.90;;
65358;SDS011;52491;45.900;6.346;2022-12-29T19:13:06;6.75;;;4.47;;
65358;SDS011;52491;45.900;6.346;2022-12-29T19:15:40;8.52;;;5.10;;
65358;SDS011;52491;45.900;6.346;2022-12-29T19:18:06;14.75;;;6.57;;
65358;SDS011;52491;45.900;6.346;2022-12-29T19:20:38;19.33;;;7.43;;
65358;SDS011;52491;45.900;6.346;2022-12-29T19:23:09;14.85;;;8.13;;
65358;SDS011;52491;45.900;6.346;2022-12-29T19:25:38;16.25;;;8.35;;
65358;SDS011;52491;45.900;6.346;2022-12-29T19:28:05;16.88;;;7.90;;
65358;SDS011;52491;45.900;6.346;2022-12-29T19:30:31;25.83;;;9.15;;
65358;SDS011;52491;45.900;6.346;2022-12-29T19:32:59;15.70;;;7.70;;
65358;SDS011;52491;45.900;6.346;2022-12-29T19:35:28;12.77;;;7.88;;
65358;SDS011;52491;45.900;6.346;2022-12-29T19:37:55;20.92;;;8.18;;
65358;SDS011;52491;45.900;6.346;2022-12-29T19:40:22;17.77;;;8.85;;
65358;SDS011;52491;45.900;6.346;2022-12-29T19:42:51;36.45;;;9.27;;
65358;SDS011;52491;45.900;6.346;2022-12-29T19:45:20;24.50;;;8.48;;
65358;SDS011;52491;45.900;6.346;2022-12-29T19:47:47;20.10;;;7.78;;
65358;SDS011;52491;45.900;6.346;2022-12-29T19:50:15;16.40;;;8.75;;
65358;SDS011;52491;45.900;6.346;2022-12-29T19:52:42;20.63;;;7.95;;
65358;SDS011;52491;45.900;6.346;2022-12-29T19:55:12;14.90;;;7.35;;
65358;SDS011;52491;45.900;6.346;2022-12-29T19:57:39;20.30;;;8.85;;
65358;SDS011;52491;45.900;6.346;2022-12-29T20:00:07;17.55;;;7.82;;
65358;SDS011;52491;45.900;6.346;2022-12-29T20:02:33;16.35;;;7.38;;
65358;SDS011;52491;45.900;6.346;2022-12-29T20:04:59;13.80;;;8.45;;
65358;SDS011;52491;45.900;6.346;2022-12-29T20:07:25;15.40;;;8.27;;
65358;SDS011;52491;45.900;6.346;2022-12-29T20:09:51;18.90;;;8.55;;
65358;SDS011;52491;45.900;6.346;2022-12-29T20:12:17;18.17;;;8.25;;
65358;SDS011;52491;45.900;6.346;2022-12-29T20:14:43;16.33;;;8.90;;
65358;SDS011;52491;45.900;6.346;2022-12-29T20:17:10;13.30;;;7.22;;
65358;SDS011;52491;45.900;6.346;2022-12-29T20:19:39;19.88;;;7.82;;
65358;SDS011;52491;45.900;6.346;2022-12-29T20:22:05;14.75;;;7.10;;
65358;SDS011;52491;45.900;6.346;2022-12-29T20:24:32;13.80;;;7.60;;
65358;SDS011;52491;45.900;6.346;2022-12-29T20:26:59;16.17;;;8.38;;
65358;SDS011;52491;45.900;6.346;2022-12-29T20:29:27;15.23;;;7.90;;
65358;SDS011;52491;45.900;6.346;2022-12-29T20:32:03;11.85;;;7.35;;
65358;SDS011;52491;45.900;6.346;2022-12-29T20:34:33;16.20;;;7.60;;
65358;SDS011;52491;45.900;6.346;2022-12-29T20:37:01;13.90;;;6.90;;
65358;SDS011;52491;45.900;6.346;2022-12-29T20:39:27;15.63;;;7.90;;
65358;SDS011;52491;45.900;6.346;2022-12-29T20:41:53;12.63;;;7.22;;
65358;SDS011;52491;45.900;6.346;2022-12-29T20:44:18;14.60;;;6.72;;
65358;SDS011;52491;45.900;6.346;2022-12-29T20:46:44;14.07;;;7.43;;
65358;SDS011;52491;45.900;6.346;2022-12-29T20:49:10;14.85;;;7.05;;
65358;SDS011;52491;45.900;6.346;2022-12-29T20:51:36;14.07;;;7.47;;
65358;SDS011;52491;45.900;6.346;2022-12-29T20:54:02;13.57;;;7.57;;
65358;SDS011;52491;45.900;6.346;2022-12-29T20:56:27;13.00;;;6.55;;
65358;SDS011;52491;45.900;6.346;2022-12-29T20:58:54;12.07;;;7.28;;
65358;SDS011;52491;45.900;6.346;2022-12-29T21:01:21;14.27;;;7.05;;
65358;SDS011;52491;45.900;6.346;2022-12-29T21:03:50;11.30;;;7.18;;
65358;SDS011;52491;45.900;6.346;2022-12-29T21:06:16;12.73;;;7.82;;
65358;SDS011;52491;45.900;6.346;2022-12-29T21:08:43;16.92;;;7.20;;
65358;SDS011;52491;45.900;6.346;2022-12-29T21:11:09;10.82;;;6.38;;
65358;SDS011;52491;45.900;6.346;2022-12-29T21:13:35;14.48;;;7.15;;
65358;SDS011;52491;45.900;6.346;2022-12-29T21:16:02;16.92;;;7.53;;
65358;SDS011;52491;45.900;6.346;2022-12-29T21:18:30;10.32;;;7.75;;
65358;SDS011;52491;45.900;6.346;2022-12-29T21:20:56;11.07;;;7.25;;
65358;SDS011;52491;45.900;6.346;2022-12-29T21:23:26;13.88;;;6.95;;
